createdAt,value
2022-10-05T00:01:26.398Z,74.50
2022-10-05T00:03:59.133Z,74.60
2022-10-05T00:06:29.961Z,74.50
2022-10-05T00:09:01.311Z,74.60
2022-10-05T00:11:29.865Z,74.70
2022-10-05T00:13:59.389Z,74.70
2022-10-05T00:16:27.624Z,74.80
2022-10-05T00:18:56.235Z,75.70
2022-10-05T00:21:25.895Z,74.90
2022-10-05T00:23:57.262Z,74.80
2022-10-05T00:26:28.427Z,74.70
2022-10-05T00:28:57.056Z,74.70
2022-10-05T00:31:28.526Z,74.60
2022-10-05T00:33:57.393Z,74.50
2022-10-05T00:36:26.650Z,74.50
2022-10-05T00:38:55.792Z,74.40
2022-10-05T00:41:31.568Z,74.40
2022-10-05T00:44:24.861Z,74.50
2022-10-05T00:46:58.386Z,74.70
2022-10-05T00:49:40.998Z,75.10
2022-10-05T00:52:20.733Z,74.30
2022-10-05T00:54:59.017Z,74.30
2022-10-05T00:57:42.779Z,74.30
2022-10-05T01:00:14.527Z,74.30
2022-10-05T01:02:54.944Z,74.10
2022-10-05T01:05:39.879Z,74.30
2022-10-05T01:08:20.310Z,74.30
2022-10-05T01:10:58.641Z,74.30
2022-10-05T01:13:35.789Z,74.20
2022-10-05T01:16:09.765Z,74.30
2022-10-05T01:18:43.370Z,74.40
2022-10-05T01:21:17.976Z,74.40
2022-10-05T01:24:33.901Z,74.50
2022-10-05T01:27:34.969Z,75.10
2022-10-05T01:30:07.954Z,75.10
2022-10-05T01:32:42.259Z,74.90
2022-10-05T01:35:21.136Z,75.00
2022-10-05T01:37:58.910Z,75.20
2022-10-05T01:40:34.882Z,75.20
2022-10-05T01:43:09.056Z,75.20
2022-10-05T01:45:48.649Z,75.30
2022-10-05T01:48:24.000Z,75.40
2022-10-05T01:51:02.687Z,75.30
2022-10-05T01:53:44.078Z,75.60
2022-10-05T01:56:20.420Z,75.70
2022-10-05T01:59:00.316Z,75.80
2022-10-05T02:01:35.043Z,75.90
2022-10-05T02:04:07.519Z,76.00
2022-10-05T02:06:41.667Z,76.00
2022-10-05T02:09:15.205Z,76.30
2022-10-05T02:11:47.035Z,76.30
2022-10-05T02:14:19.139Z,76.40
2022-10-05T02:16:50.492Z,76.40
2022-10-05T02:19:22.869Z,76.40
2022-10-05T02:21:55.622Z,76.40
2022-10-05T02:24:28.578Z,76.30
2022-10-05T02:26:58.151Z,76.10
2022-10-05T02:29:31.733Z,76.10
2022-10-05T02:32:05.027Z,76.70
2022-10-05T02:34:38.870Z,77.10
2022-10-05T02:37:21.767Z,77.60
2022-10-05T02:40:09.393Z,78.10
2022-10-05T02:42:47.572Z,78.20
2022-10-05T02:45:24.238Z,77.50
2022-10-05T02:48:06.366Z,77.00
2022-10-05T02:50:44.347Z,76.90
2022-10-05T02:53:23.384Z,76.90
2022-10-05T02:56:00.742Z,76.80
2022-10-05T02:58:33.015Z,76.70
2022-10-05T03:01:07.294Z,76.60
2022-10-05T03:03:40.883Z,76.80
2022-10-05T03:06:17.748Z,76.80
2022-10-05T03:08:51.064Z,76.90
2022-10-05T03:11:26.995Z,76.80
2022-10-05T03:14:05.214Z,76.90
2022-10-05T03:16:46.614Z,76.90
2022-10-05T03:19:29.225Z,77.00
2022-10-05T03:22:02.732Z,77.00
2022-10-05T03:24:44.980Z,76.90
2022-10-05T03:27:25.133Z,77.00
2022-10-05T03:30:01.912Z,77.10
2022-10-05T03:32:39.569Z,77.60
2022-10-05T03:35:13.724Z,78.10
2022-10-05T03:37:49.642Z,78.30
2022-10-05T03:40:28.554Z,78.60
2022-10-05T03:43:08.084Z,78.80
2022-10-05T03:45:44.440Z,79.00
2022-10-05T03:48:16.412Z,79.00
2022-10-05T03:51:02.805Z,78.60
2022-10-05T03:53:38.484Z,78.20
2022-10-05T03:56:13.567Z,77.70
2022-10-05T03:58:47.242Z,77.60
2022-10-05T04:01:20.878Z,77.70
2022-10-05T04:03:51.206Z,77.90
2022-10-05T04:06:26.359Z,78.20
2022-10-05T04:09:00.788Z,78.80
2022-10-05T04:11:33.402Z,79.00
2022-10-05T04:14:06.379Z,79.00
2022-10-05T04:16:41.827Z,79.00
2022-10-05T04:19:16.192Z,78.60
2022-10-05T04:21:53.041Z,78.30
2022-10-05T04:24:27.414Z,78.30
2022-10-05T04:26:58.857Z,78.20
2022-10-05T04:29:35.287Z,78.10
2022-10-05T04:32:23.106Z,77.90
2022-10-05T04:35:00.675Z,77.70
2022-10-05T04:37:46.514Z,77.50
2022-10-05T04:40:28.038Z,77.40
2022-10-05T04:43:06.324Z,77.20
2022-10-05T04:45:47.021Z,77.10
2022-10-05T04:48:36.926Z,77.20
2022-10-05T04:51:20.828Z,77.40
2022-10-05T04:53:57.961Z,77.50
2022-10-05T04:56:35.550Z,77.50
2022-10-05T04:59:26.153Z,77.50
2022-10-05T05:02:06.821Z,77.70
2022-10-05T05:05:03.200Z,77.70
2022-10-05T05:07:46.573Z,78.00
2022-10-05T05:10:42.311Z,77.90
2022-10-05T05:13:37.452Z,78.10
2022-10-05T05:16:13.943Z,78.00
2022-10-05T05:18:53.422Z,78.00
2022-10-05T05:21:34.304Z,78.20
2022-10-05T05:24:11.473Z,78.30
2022-10-05T05:26:53.384Z,78.20
2022-10-05T05:29:28.682Z,78.30
2022-10-05T05:32:04.371Z,78.30
2022-10-05T05:34:46.972Z,78.30
2022-10-05T05:37:27.175Z,78.20
2022-10-05T05:40:06.198Z,78.20
2022-10-05T05:42:48.587Z,78.10
2022-10-05T05:45:20.968Z,78.10
2022-10-05T05:47:54.350Z,78.00
2022-10-05T05:50:43.404Z,78.10
2022-10-05T05:53:16.819Z,78.30
2022-10-05T05:55:48.867Z,78.30
2022-10-05T05:58:24.545Z,78.50
2022-10-05T06:00:59.029Z,78.80
2022-10-05T06:03:35.769Z,78.90
2022-10-05T06:06:08.127Z,79.00
2022-10-05T06:08:41.561Z,79.00
2022-10-05T06:11:17.445Z,78.90
2022-10-05T06:13:48.436Z,78.90
2022-10-05T06:16:22.332Z,79.00
2022-10-05T06:18:56.947Z,79.00
2022-10-05T06:21:31.402Z,78.80
2022-10-05T06:24:05.802Z,78.60
2022-10-05T06:27:14.864Z,78.50
2022-10-05T06:29:59.995Z,78.80
2022-10-05T06:32:33.033Z,78.80
2022-10-05T06:35:09.542Z,78.70
2022-10-05T06:38:02.019Z,78.60
2022-10-05T06:40:42.988Z,78.70
2022-10-05T06:43:25.822Z,78.50
2022-10-05T06:46:07.852Z,78.70
2022-10-05T06:48:59.490Z,78.80
2022-10-05T06:51:35.859Z,79.00
2022-10-05T06:54:15.647Z,79.10
2022-10-05T06:56:50.254Z,79.30
2022-10-05T06:59:25.284Z,79.60
2022-10-05T07:02:02.166Z,80.20
2022-10-05T07:04:47.428Z,80.50
2022-10-05T07:07:22.431Z,80.90
2022-10-05T07:10:03.990Z,80.90
2022-10-05T07:12:44.899Z,81.10
2022-10-05T07:15:30.016Z,81.40
2022-10-05T07:18:17.367Z,81.80
2022-10-05T07:20:52.335Z,82.00
2022-10-05T07:23:33.281Z,82.30
2022-10-05T07:26:07.755Z,83.00
2022-10-05T07:28:48.283Z,82.80
2022-10-05T07:31:29.232Z,83.10
2022-10-05T07:34:06.414Z,82.90
2022-10-05T07:36:58.915Z,83.20
2022-10-05T07:39:59.232Z,83.20
2022-10-05T07:42:50.591Z,83.30
2022-10-05T07:45:29.736Z,83.20
2022-10-05T07:48:00.103Z,84.20
2022-10-05T07:50:33.289Z,83.20
2022-10-05T07:53:06.283Z,83.70
2022-10-05T07:55:38.659Z,83.60
2022-10-05T07:58:13.129Z,83.40
2022-10-05T08:00:57.324Z,83.50
2022-10-05T08:03:33.617Z,84.10
2022-10-05T08:06:05.969Z,83.80
2022-10-05T08:08:46.677Z,83.40
2022-10-05T08:11:18.899Z,83.00
2022-10-05T08:13:53.258Z,82.80
2022-10-05T08:16:25.412Z,83.10
2022-10-05T08:18:58.826Z,83.20
2022-10-05T08:21:35.606Z,83.30
2022-10-05T08:24:12.196Z,83.30
2022-10-05T08:26:51.481Z,83.10
2022-10-05T08:29:28.212Z,83.40
2022-10-05T08:32:00.687Z,82.80
2022-10-05T08:34:36.147Z,82.90
2022-10-05T08:37:10.156Z,82.80
2022-10-05T08:39:41.393Z,82.50
2022-10-05T08:42:53.318Z,82.90
2022-10-05T08:46:03.469Z,82.50
2022-10-05T08:49:04.480Z,82.90
2022-10-05T08:51:55.665Z,83.00
2022-10-05T08:54:52.251Z,83.00
2022-10-05T08:57:48.968Z,82.90
2022-10-05T09:00:21.157Z,83.00
2022-10-05T09:03:21.054Z,82.80
2022-10-05T09:06:34.888Z,83.00
2022-10-05T09:09:28.564Z,83.20
2022-10-05T09:12:20.416Z,83.40
2022-10-05T09:15:24.140Z,83.10
2022-10-05T09:18:20.325Z,82.70
2022-10-05T09:20:53.536Z,83.50
2022-10-05T09:23:38.538Z,83.00
2022-10-05T09:26:30.131Z,82.90
2022-10-05T09:29:18.687Z,82.30
2022-10-05T09:32:11.715Z,83.10
2022-10-05T09:35:06.885Z,82.90
2022-10-05T09:37:57.954Z,82.70
2022-10-05T09:41:06.219Z,82.50
2022-10-05T09:44:09.100Z,82.60
2022-10-05T09:46:52.518Z,82.20
2022-10-05T09:50:06.234Z,82.70
2022-10-05T09:53:01.491Z,82.70
2022-10-05T09:56:05.697Z,82.20
2022-10-05T09:59:06.977Z,82.40
2022-10-05T10:01:52.232Z,82.50
2022-10-05T10:04:29.722Z,81.70
2022-10-05T10:07:31.749Z,81.70
2022-10-05T10:10:23.076Z,81.60
2022-10-05T10:13:15.355Z,81.90
2022-10-05T10:16:15.929Z,81.80
2022-10-05T10:19:14.337Z,82.10
2022-10-05T10:22:11.287Z,81.70
2022-10-05T10:25:21.335Z,81.70
2022-10-05T10:28:08.303Z,81.90
2022-10-05T10:30:58.005Z,81.00
2022-10-05T10:34:01.014Z,80.90
2022-10-05T10:36:52.217Z,80.80
2022-10-05T10:39:31.233Z,80.40
2022-10-05T10:42:26.322Z,80.70
2022-10-05T10:45:07.287Z,80.60
2022-10-05T10:47:50.657Z,80.30
2022-10-05T10:50:55.767Z,79.70
2022-10-05T10:54:08.885Z,79.70
2022-10-05T10:56:50.173Z,79.50
2022-10-05T10:59:42.698Z,78.90
2022-10-05T11:02:37.298Z,79.30
2022-10-05T11:05:27.216Z,79.00
2022-10-05T11:08:28.575Z,78.60
2022-10-05T11:11:23.737Z,78.30
2022-10-05T11:14:12.389Z,77.50
2022-10-05T11:17:18.158Z,77.20
2022-10-05T11:20:06.201Z,77.00
2022-10-05T11:22:55.012Z,77.40
2022-10-05T11:25:50.165Z,77.00
2022-10-05T11:28:46.941Z,76.60
2022-10-05T11:31:52.406Z,76.10
2022-10-05T11:34:56.906Z,75.70
2022-10-05T11:37:55.186Z,75.30
2022-10-05T11:40:54.819Z,75.00
2022-10-05T11:44:06.957Z,75.10
2022-10-05T11:46:43.237Z,74.90
2022-10-05T11:49:28.817Z,75.20
2022-10-05T11:52:07.333Z,74.60
2022-10-05T11:55:30.477Z,74.60
2022-10-05T11:58:02.083Z,73.50
2022-10-05T12:00:41.442Z,74.10
2022-10-05T12:03:27.966Z,73.30
2022-10-05T12:06:09.824Z,73.00
2022-10-05T12:08:46.923Z,72.60
2022-10-05T12:11:33.420Z,72.80
2022-10-05T12:14:06.520Z,71.70
2022-10-05T12:16:44.639Z,72.20
2022-10-05T12:19:19.341Z,72.00
2022-10-05T12:21:51.579Z,72.00
2022-10-05T12:24:27.938Z,71.80
2022-10-05T12:27:00.433Z,71.70
2022-10-05T12:29:33.888Z,71.60
2022-10-05T12:32:11.729Z,71.70
2022-10-05T12:34:48.762Z,71.50
2022-10-05T12:37:42.382Z,71.30
2022-10-05T12:40:23.573Z,70.50
2022-10-05T12:43:00.646Z,70.90
2022-10-05T12:45:43.838Z,70.60
2022-10-05T12:48:32.795Z,70.70
2022-10-05T12:51:10.436Z,69.90
2022-10-05T12:53:48.630Z,70.30
2022-10-05T12:56:32.319Z,70.30
2022-10-05T12:59:09.521Z,69.70
2022-10-05T13:01:43.296Z,69.60
2022-10-05T13:04:22.953Z,69.20
2022-10-05T13:07:09.634Z,68.70
2022-10-05T13:09:41.603Z,69.00
2022-10-05T13:12:18.500Z,68.90
2022-10-05T13:14:57.919Z,68.70
2022-10-05T13:17:36.926Z,68.20
2022-10-05T13:20:16.897Z,68.40
2022-10-05T13:22:48.997Z,67.60
2022-10-05T13:25:27.864Z,68.10
2022-10-05T13:28:11.857Z,67.30
2022-10-05T13:30:45.720Z,66.40
2022-10-05T13:33:19.008Z,66.60
2022-10-05T13:35:55.291Z,66.50
2022-10-05T13:38:34.173Z,65.70
2022-10-05T13:41:10.072Z,65.70
2022-10-05T13:43:44.652Z,66.10
2022-10-05T13:46:20.245Z,65.90
2022-10-05T13:49:05.986Z,65.90
2022-10-05T13:51:43.647Z,65.10
2022-10-05T13:54:19.227Z,65.30
2022-10-05T13:56:53.871Z,64.90
2022-10-05T13:59:30.422Z,65.50
2022-10-05T14:02:01.884Z,65.10
2022-10-05T14:04:43.623Z,64.80
2022-10-05T14:07:25.179Z,65.20
2022-10-05T14:09:53.915Z,64.70
2022-10-05T14:12:23.277Z,65.10
2022-10-05T14:14:54.195Z,65.10
2022-10-05T14:17:42.279Z,64.60
2022-10-05T14:20:24.708Z,64.70
2022-10-05T14:22:58.890Z,64.20
2022-10-05T14:25:28.843Z,64.40
2022-10-05T14:28:03.921Z,64.10
2022-10-05T14:30:33.632Z,63.80
2022-10-05T14:33:16.814Z,64.10
2022-10-05T14:35:51.102Z,63.30
2022-10-05T14:38:22.841Z,63.70
2022-10-05T14:41:16.901Z,64.00
2022-10-05T14:43:59.666Z,62.80
2022-10-05T14:46:30.549Z,63.90
2022-10-05T14:49:22.670Z,64.10
2022-10-05T14:51:52.036Z,63.10
2022-10-05T14:54:29.993Z,63.50
2022-10-05T14:57:06.650Z,63.40
2022-10-05T15:00:12.173Z,64.00
2022-10-05T15:03:01.631Z,63.20
2022-10-05T15:05:34.458Z,64.60
2022-10-05T15:08:11.130Z,64.00
2022-10-05T15:10:47.155Z,64.00
2022-10-05T15:13:20.008Z,63.60
2022-10-05T15:15:54.807Z,63.40
2022-10-05T15:18:35.214Z,63.50
2022-10-05T15:21:17.162Z,64.00
2022-10-05T15:23:52.936Z,63.50
2022-10-05T15:26:48.842Z,63.70
2022-10-05T15:29:33.735Z,63.50
2022-10-05T15:32:14.574Z,63.70
2022-10-05T15:34:49.484Z,64.00
2022-10-05T15:37:22.504Z,64.30
2022-10-05T15:39:54.842Z,65.10
2022-10-05T15:42:35.787Z,65.30
2022-10-05T15:45:16.405Z,64.90
2022-10-05T15:47:49.060Z,64.60
2022-10-05T15:50:24.317Z,64.70
2022-10-05T15:52:57.434Z,64.40
2022-10-05T15:55:36.943Z,64.70
2022-10-05T15:58:29.236Z,66.00
2022-10-05T16:01:03.803Z,65.60
2022-10-05T16:03:42.479Z,66.50
2022-10-05T16:06:33.741Z,66.60
2022-10-05T16:09:13.148Z,66.20
2022-10-05T16:12:00.597Z,66.80
2022-10-05T16:14:40.194Z,66.70
2022-10-05T16:17:20.906Z,67.40
2022-10-05T16:20:04.276Z,67.10
2022-10-05T16:22:43.519Z,67.10
2022-10-05T16:25:21.549Z,67.50
2022-10-05T16:28:05.471Z,67.80
2022-10-05T16:30:50.127Z,67.80
2022-10-05T16:33:29.714Z,67.90
2022-10-05T16:36:07.492Z,68.00
2022-10-05T16:38:46.655Z,68.00
2022-10-05T16:41:20.893Z,68.20
2022-10-05T16:43:56.585Z,68.30
2022-10-05T16:46:33.163Z,68.40
2022-10-05T16:49:11.827Z,68.90
2022-10-05T16:51:50.164Z,68.90
2022-10-05T16:54:21.909Z,68.90
2022-10-05T16:56:54.917Z,69.10
2022-10-05T16:59:46.959Z,69.60
2022-10-05T17:02:27.846Z,69.60
2022-10-05T17:05:06.986Z,69.50
2022-10-05T17:08:06.088Z,69.40
2022-10-05T17:10:48.307Z,69.60
2022-10-05T17:13:36.330Z,69.70
2022-10-05T17:16:12.104Z,70.00
2022-10-05T17:19:11.122Z,69.90
2022-10-05T17:21:42.183Z,70.40
2022-10-05T17:24:25.478Z,69.90
2022-10-05T17:27:03.156Z,70.60
2022-10-05T17:29:47.579Z,70.50
2022-10-05T17:32:40.137Z,70.50
2022-10-05T17:35:20.585Z,70.70
2022-10-05T17:38:20.174Z,71.00
2022-10-05T17:41:15.127Z,71.10
2022-10-05T17:44:24.880Z,70.90
2022-10-05T17:46:57.953Z,71.00
2022-10-05T17:50:16.355Z,71.10
2022-10-05T17:53:23.918Z,71.40
2022-10-05T17:56:05.730Z,71.30
2022-10-05T17:59:04.801Z,71.30
2022-10-05T18:01:38.342Z,71.60
2022-10-05T18:04:34.066Z,71.40
2022-10-05T18:07:17.716Z,72.00
2022-10-05T18:09:59.572Z,71.70
2022-10-05T18:12:46.857Z,72.00
2022-10-05T18:15:45.458Z,72.20
2022-10-05T18:18:33.998Z,72.00
2022-10-05T18:21:24.810Z,72.60
2022-10-05T18:24:19.311Z,72.70
2022-10-05T18:27:00.287Z,72.90
2022-10-05T18:30:05.764Z,73.10
2022-10-05T18:33:16.212Z,73.30
2022-10-05T18:35:58.053Z,73.20
2022-10-05T18:38:34.250Z,73.20
2022-10-05T18:41:09.872Z,73.20
2022-10-05T18:43:47.264Z,73.30
2022-10-05T18:46:26.207Z,73.70
2022-10-05T18:49:08.915Z,73.70
2022-10-05T18:51:51.539Z,73.90
2022-10-05T18:54:33.369Z,73.80
2022-10-05T18:57:31.618Z,73.90
2022-10-05T19:00:08.321Z,74.00
2022-10-05T19:02:39.632Z,73.80
2022-10-05T19:05:46.456Z,73.80
2022-10-05T19:08:21.823Z,73.80
2022-10-05T19:10:56.562Z,73.90
2022-10-05T19:13:38.736Z,73.90
2022-10-05T19:16:27.479Z,74.40
2022-10-05T19:19:30.737Z,74.20
2022-10-05T19:22:06.168Z,74.70
2022-10-05T19:24:51.696Z,74.60
2022-10-05T19:27:28.276Z,75.40
2022-10-05T19:30:15.562Z,75.20
2022-10-05T19:33:21.574Z,75.90
2022-10-05T19:36:01.457Z,75.70
2022-10-05T19:38:37.840Z,75.40
2022-10-05T19:41:15.147Z,75.40
2022-10-05T19:43:59.067Z,75.60
2022-10-05T19:46:43.882Z,75.90
2022-10-05T19:49:12.451Z,75.90
2022-10-05T19:51:51.451Z,75.90
2022-10-05T19:54:25.920Z,76.10
2022-10-05T19:56:55.856Z,76.30
2022-10-05T19:59:28.109Z,76.10
2022-10-05T20:01:58.715Z,76.10
2022-10-05T20:04:35.142Z,76.00
2022-10-05T20:07:05.400Z,76.10
2022-10-05T20:09:56.746Z,75.80
2022-10-05T20:12:52.165Z,76.50
2022-10-05T20:15:41.351Z,76.40
2022-10-05T20:18:59.275Z,75.90
2022-10-05T20:21:43.860Z,76.40
2022-10-05T20:24:15.263Z,76.20
2022-10-05T20:27:05.210Z,76.10
2022-10-05T20:29:36.493Z,76.10
2022-10-05T20:32:08.296Z,76.00
2022-10-05T20:34:42.618Z,76.10
2022-10-05T20:37:11.519Z,76.20
2022-10-05T20:39:42.055Z,76.00
2022-10-05T20:42:11.039Z,76.10
2022-10-05T20:44:40.109Z,76.40
2022-10-05T20:47:10.149Z,76.40
2022-10-05T20:49:41.595Z,76.60
2022-10-05T20:52:10.898Z,76.80
2022-10-05T20:54:40.792Z,76.80
2022-10-05T20:57:09.682Z,76.80
2022-10-05T20:59:38.381Z,76.80
2022-10-05T21:02:07.112Z,76.70
2022-10-05T21:04:40.781Z,76.80
2022-10-05T21:07:10.207Z,76.80
2022-10-05T21:09:40.904Z,76.70
2022-10-05T21:12:10.504Z,76.50
2022-10-05T21:14:38.946Z,76.50
2022-10-05T21:17:07.541Z,76.40
2022-10-05T21:19:38.531Z,76.50
2022-10-05T21:22:08.366Z,76.30
2022-10-05T21:24:37.296Z,76.40
2022-10-05T21:27:06.341Z,76.30
2022-10-05T21:29:37.028Z,76.30
2022-10-05T21:32:08.877Z,76.20
2022-10-05T21:34:37.077Z,76.00
2022-10-05T21:37:05.315Z,76.00
2022-10-05T21:39:35.145Z,75.90
2022-10-05T21:42:03.284Z,75.90
2022-10-05T21:44:31.400Z,75.80
2022-10-05T21:47:01.319Z,75.80
2022-10-05T21:49:29.841Z,76.00
2022-10-05T21:51:59.616Z,75.70
2022-10-05T21:54:28.674Z,75.70
2022-10-05T21:57:00.133Z,75.60
2022-10-05T21:59:32.805Z,75.70
2022-10-05T22:02:02.444Z,75.60
2022-10-05T22:04:31.081Z,75.60
2022-10-05T22:07:02.027Z,75.50
2022-10-05T22:09:30.605Z,75.60
2022-10-05T22:11:59.118Z,75.60
2022-10-05T22:14:28.358Z,75.70
2022-10-05T22:16:56.543Z,75.50
2022-10-05T22:19:26.111Z,75.60
2022-10-05T22:21:54.645Z,75.60
2022-10-05T22:24:23.180Z,75.60
2022-10-05T22:26:52.868Z,75.60
2022-10-05T22:29:22.661Z,75.60
2022-10-05T22:31:50.801Z,75.60
2022-10-05T22:34:19.252Z,75.60
2022-10-05T22:36:49.799Z,75.40
2022-10-05T22:39:18.664Z,75.40
2022-10-05T22:41:46.888Z,75.50
2022-10-05T22:44:15.569Z,75.50
2022-10-05T22:46:43.675Z,75.40
2022-10-05T22:49:12.259Z,75.40
2022-10-05T22:51:40.456Z,75.40
2022-10-05T22:54:09.954Z,75.30
2022-10-05T22:56:38.071Z,75.20
2022-10-05T22:59:06.134Z,75.10
2022-10-05T23:01:34.769Z,75.10
2022-10-05T23:04:04.465Z,76.00
2022-10-05T23:06:32.877Z,75.00
2022-10-05T23:09:01.750Z,75.10
2022-10-05T23:11:31.427Z,75.00
2022-10-05T23:14:00.828Z,74.90
2022-10-05T23:16:30.268Z,74.80
2022-10-05T23:18:59.568Z,75.00
2022-10-05T23:21:30.428Z,74.70
2022-10-05T23:23:59.223Z,74.70
2022-10-05T23:26:27.593Z,74.70
2022-10-05T23:28:57.090Z,74.70
2022-10-05T23:31:27.503Z,74.70
2022-10-05T23:33:55.611Z,74.70
2022-10-05T23:36:25.398Z,74.70
2022-10-05T23:38:54.130Z,74.70
2022-10-05T23:41:22.912Z,74.50
2022-10-05T23:43:51.261Z,74.50
2022-10-05T23:46:20.813Z,74.50
2022-10-05T23:48:50.715Z,74.50
2022-10-05T23:51:19.007Z,74.50
2022-10-05T23:53:47.967Z,74.50
2022-10-05T23:56:16.088Z,74.50
2022-10-05T23:58:45.446Z,74.40
